NRS101 KIAH-KIND
Flight info
| Callsign | NRS101 |
|---|---|
| Flight time | 1h 50m |
| Altitude | 32000 |
| Route | STYCK8 DOLEY FUZ SPS/N0469F310 GLOPS MPYRE ETUNE WOSGI NMANN PXV RACYR6 |
| Aircraft | B712/M-SDFGHRWY/C |
Departure
| Time | 2026-05-04 19:21 |
|---|---|
| Airport | George Bush Intercontinental Airport (KIAH) |
Arrival
| Time | 2026-05-04 21:11 |
|---|---|
| Airport | Indianapolis International Airport (KIND) |
| Time | Latitude | Longitude | Altitude | Speed | Heading |
|---|---|---|---|---|---|
| 2026-05-04 18:57 | 29.97689 | -95.34556 | 100 ft | 0 kts | 173° |
| 2026-05-04 18:59 | 29.97690 | -95.34556 | 100 ft | 0 kts | 173° |
| 2026-05-04 19:04 | 29.97690 | -95.34557 | 100 ft | 0 kts | 173° |
| 2026-05-04 19:09 | 29.97693 | -95.34557 | 119 ft | 1 kts | 173° |
| 2026-05-04 19:10 | 29.97710 | -95.34559 | 119 ft | 3 kts | 173° |
| 2026-05-04 19:10 | 29.97737 | -95.34564 | 100 ft | 4 kts | 169° |
| 2026-05-04 19:10 | 29.97767 | -95.34571 | 100 ft | 4 kts | 169° |
| 2026-05-04 19:10 | 29.97776 | -95.34573 | 100 ft | 2 kts | 169° |
| 2026-05-04 19:11 | 29.97770 | -95.34580 | 100 ft | 2 kts | 253° |
| 2026-05-04 19:11 | 29.97765 | -95.34637 | 100 ft | 12 kts | 258° |
| 2026-05-04 19:11 | 29.97738 | -95.34700 | 100 ft | 0 kts | 230° |
| 2026-05-04 19:12 | 29.97734 | -95.34706 | 100 ft | 4 kts | 230° |
| 2026-05-04 19:13 | 29.97709 | -95.34756 | 100 ft | 11 kts | 264° |
| 2026-05-04 19:13 | 29.97774 | -95.34820 | 100 ft | 16 kts | 334° |
| 2026-05-04 19:13 | 29.97889 | -95.34890 | 101 ft | 21 kts | 327° |
| 2026-05-04 19:13 | 29.98020 | -95.34972 | 101 ft | 20 kts | 333° |
| 2026-05-04 19:14 | 29.98147 | -95.35049 | 101 ft | 22 kts | 330° |
| 2026-05-04 19:14 | 29.98283 | -95.35136 | 101 ft | 23 kts | 330° |
| 2026-05-04 19:14 | 29.98431 | -95.35232 | 100 ft | 26 kts | 332° |
| 2026-05-04 19:14 | 29.98596 | -95.35335 | 100 ft | 28 kts | 332° |
| 2026-05-04 19:15 | 29.98745 | -95.35424 | 100 ft | 17 kts | 334° |
| 2026-05-04 19:15 | 29.98843 | -95.35485 | 100 ft | 14 kts | 329° |
| 2026-05-04 19:15 | 29.98890 | -95.35552 | 100 ft | 10 kts | 259° |
| 2026-05-04 19:15 | 29.98870 | -95.35592 | 101 ft | 0 kts | 239° |
| 2026-05-04 19:16 | 29.98862 | -95.35608 | 101 ft | 6 kts | 239° |
| 2026-05-04 19:17 | 29.98833 | -95.35668 | 102 ft | 11 kts | 243° |
| 2026-05-04 19:17 | 29.98829 | -95.35676 | 101 ft | 0 kts | 243° |
| 2026-05-04 19:19 | 29.98828 | -95.35678 | 101 ft | 1 kts | 243° |
| 2026-05-04 19:19 | 29.98811 | -95.35716 | 103 ft | 10 kts | 243° |
| 2026-05-04 19:19 | 29.98745 | -95.35757 | 105 ft | 15 kts | 156° |
| 2026-05-04 19:20 | 29.98599 | -95.35671 | 104 ft | 44 kts | 151° |
| 2026-05-04 19:20 | 29.98143 | -95.35392 | 102 ft | 104 kts | 152° |
| 2026-05-04 19:20 | 29.97322 | -95.34894 | 113 ft | 158 kts | 153° |
| 2026-05-04 19:20 | 29.96333 | -95.34275 | 597 ft | 161 kts | 153° |
| 2026-05-04 19:21 | 29.95283 | -95.33966 | 1223 ft | 156 kts | 185° |
| 2026-05-04 19:21 | 29.94326 | -95.34544 | 1584 ft | 170 kts | 237° |
| 2026-05-04 19:21 | 29.94116 | -95.35937 | 1942 ft | 186 kts | 270° |
| 2026-05-04 19:21 | 29.94399 | -95.37407 | 2506 ft | 190 kts | 287° |
| 2026-05-04 19:22 | 29.94943 | -95.38781 | 3180 ft | 187 kts | 293° |
| 2026-05-04 19:22 | 29.95533 | -95.40104 | 3761 ft | 186 kts | 289° |
| 2026-05-04 19:22 | 29.96117 | -95.41497 | 3930 ft | 205 kts | 304° |
| 2026-05-04 19:22 | 29.97339 | -95.42475 | 3943 ft | 232 kts | 349° |
| 2026-05-04 19:23 | 29.98946 | -95.42647 | 4445 ft | 226 kts | 357° |
| 2026-05-04 19:23 | 30.00524 | -95.42686 | 4843 ft | 235 kts | 357° |
| 2026-05-04 19:23 | 30.02246 | -95.42822 | 4888 ft | 260 kts | 351° |
| 2026-05-04 19:23 | 30.04093 | -95.43185 | 5134 ft | 278 kts | 345° |
| 2026-05-04 19:24 | 30.06010 | -95.43728 | 5585 ft | 287 kts | 342° |
| 2026-05-04 19:24 | 30.07920 | -95.44382 | 6336 ft | 286 kts | 340° |
| 2026-05-04 19:24 | 30.09817 | -95.45098 | 6982 ft | 286 kts | 338° |
| 2026-05-04 19:24 | 30.11700 | -95.45855 | 7662 ft | 286 kts | 337° |
| 2026-05-04 19:25 | 30.13537 | -95.46638 | 8347 ft | 284 kts | 336° |
| 2026-05-04 19:25 | 30.15388 | -95.47443 | 9020 ft | 284 kts | 335° |
| 2026-05-04 19:25 | 30.17232 | -95.48268 | 9662 ft | 285 kts | 335° |
| 2026-05-04 19:25 | 30.19078 | -95.49107 | 10240 ft | 285 kts | 335° |
| 2026-05-04 19:26 | 30.20935 | -95.49956 | 10710 ft | 292 kts | 335° |
| 2026-05-04 19:26 | 30.22882 | -95.50856 | 10884 ft | 310 kts | 335° |
| 2026-05-04 19:26 | 30.24933 | -95.51811 | 11148 ft | 325 kts | 335° |
| 2026-05-04 19:26 | 30.27070 | -95.52805 | 11616 ft | 333 kts | 335° |
| 2026-05-04 19:27 | 30.29222 | -95.53801 | 12372 ft | 333 kts | 334° |
| 2026-05-04 19:27 | 30.31379 | -95.54795 | 13096 ft | 335 kts | 334° |
| 2026-05-04 19:27 | 30.33550 | -95.55799 | 13809 ft | 336 kts | 334° |
| 2026-05-04 19:27 | 30.35726 | -95.56807 | 14428 ft | 338 kts | 334° |
| 2026-05-04 19:28 | 30.37918 | -95.57828 | 15006 ft | 341 kts | 334° |
| 2026-05-04 19:28 | 30.40123 | -95.58859 | 15581 ft | 343 kts | 334° |
| 2026-05-04 19:28 | 30.42346 | -95.59901 | 16166 ft | 346 kts | 333° |
| 2026-05-04 19:28 | 30.44586 | -95.60951 | 16732 ft | 348 kts | 333° |
| 2026-05-04 19:29 | 30.46838 | -95.62011 | 17307 ft | 351 kts | 333° |
| 2026-05-04 19:29 | 30.49224 | -95.62737 | 17746 ft | 366 kts | 354° |
| 2026-05-04 19:29 | 30.51772 | -95.62169 | 18188 ft | 386 kts | 19° |
| 2026-05-04 19:29 | 30.54126 | -95.60592 | 18720 ft | 394 kts | 27° |
| 2026-05-04 19:30 | 30.56357 | -95.58783 | 19224 ft | 399 kts | 30° |
| 2026-05-04 19:30 | 30.58617 | -95.56885 | 19735 ft | 401 kts | 28° |
| 2026-05-04 19:30 | 30.60936 | -95.55056 | 20254 ft | 403 kts | 26° |
| 2026-05-04 19:30 | 30.63283 | -95.53262 | 20794 ft | 406 kts | 26° |
| 2026-05-04 19:31 | 30.65662 | -95.51468 | 21330 ft | 409 kts | 25° |
| 2026-05-04 19:31 | 30.68065 | -95.49663 | 21871 ft | 412 kts | 25° |
| 2026-05-04 19:31 | 30.70488 | -95.47845 | 22418 ft | 416 kts | 25° |
| 2026-05-04 19:31 | 30.72922 | -95.46017 | 23001 ft | 418 kts | 25° |
| 2026-05-04 19:32 | 30.75382 | -95.44173 | 23559 ft | 422 kts | 23° |
| 2026-05-04 19:32 | 30.77974 | -95.42642 | 23993 ft | 420 kts | 20° |
| 2026-05-04 19:32 | 30.80434 | -95.40683 | 24463 ft | 435 kts | 30° |
| 2026-05-04 19:32 | 30.82734 | -95.38442 | 24986 ft | 440 kts | 32° |
| 2026-05-04 19:33 | 30.85045 | -95.36079 | 25507 ft | 444 kts | 33° |
| 2026-05-04 19:33 | 30.85061 | -95.36063 | 25515 ft | 444 kts | 33° |
| 2026-05-04 19:34 | 30.85617 | -95.35488 | 25629 ft | 445 kts | 33° |
| 2026-05-04 19:34 | 30.87938 | -95.33078 | 26099 ft | 449 kts | 32° |
| 2026-05-04 19:34 | 30.90281 | -95.30654 | 26523 ft | 452 kts | 32° |
| 2026-05-04 19:35 | 30.92649 | -95.28222 | 26899 ft | 455 kts | 31° |
| 2026-05-04 19:35 | 30.95035 | -95.25794 | 27243 ft | 457 kts | 31° |
| 2026-05-04 19:35 | 30.97446 | -95.23360 | 27689 ft | 459 kts | 30° |
| 2026-05-04 19:35 | 30.99869 | -95.20929 | 28068 ft | 461 kts | 30° |
| 2026-05-04 19:36 | 31.02315 | -95.18492 | 28404 ft | 464 kts | 30° |
| 2026-05-04 19:36 | 31.04782 | -95.16048 | 28746 ft | 466 kts | 29° |
| 2026-05-04 19:36 | 31.07264 | -95.13598 | 29082 ft | 469 kts | 29° |
| 2026-05-04 19:36 | 31.09762 | -95.11142 | 29395 ft | 471 kts | 29° |
| 2026-05-04 19:37 | 31.12280 | -95.08673 | 29721 ft | 473 kts | 28° |
| 2026-05-04 19:37 | 31.14808 | -95.06204 | 30057 ft | 475 kts | 28° |
| 2026-05-04 19:37 | 31.17320 | -95.03753 | 30277 ft | 478 kts | 28° |
| 2026-05-04 19:37 | 31.19908 | -95.01229 | 30608 ft | 478 kts | 28° |
| 2026-05-04 19:38 | 31.22423 | -94.98775 | 30969 ft | 476 kts | 28° |
| 2026-05-04 19:38 | 31.24959 | -94.96300 | 31325 ft | 475 kts | 28° |
| 2026-05-04 19:38 | 31.27490 | -94.93830 | 31693 ft | 473 kts | 27° |
| 2026-05-04 19:38 | 31.30010 | -94.91371 | 32047 ft | 471 kts | 27° |
| 2026-05-04 19:39 | 31.32525 | -94.88920 | 32338 ft | 469 kts | 27° |
| 2026-05-04 19:39 | 31.35036 | -94.86476 | 32603 ft | 468 kts | 27° |
| 2026-05-04 19:39 | 31.37542 | -94.84039 | 32810 ft | 469 kts | 27° |
| 2026-05-04 19:40 | 31.42603 | -94.79134 | 32950 ft | 477 kts | 27° |
| 2026-05-04 19:40 | 31.47596 | -94.74256 | 32979 ft | 454 kts | 26° |
| 2026-05-04 19:41 | 31.52428 | -94.69535 | 32983 ft | 455 kts | 26° |
| 2026-05-04 19:41 | 31.57340 | -94.64777 | 32960 ft | 462 kts | 26° |
| 2026-05-04 19:42 | 31.62337 | -94.59936 | 32959 ft | 470 kts | 26° |
| 2026-05-04 19:42 | 31.67424 | -94.54994 | 32973 ft | 479 kts | 27° |
| 2026-05-04 19:43 | 31.72604 | -94.49947 | 32998 ft | 489 kts | 27° |
| 2026-05-04 19:43 | 31.77862 | -94.44802 | 32955 ft | 489 kts | 27° |
| 2026-05-04 19:44 | 31.82975 | -94.39751 | 32954 ft | 479 kts | 27° |
| 2026-05-04 19:44 | 31.88087 | -94.34713 | 32960 ft | 481 kts | 27° |
| 2026-05-04 19:45 | 31.93250 | -94.29638 | 32955 ft | 484 kts | 27° |
| 2026-05-04 19:45 | 31.98407 | -94.24551 | 32961 ft | 485 kts | 27° |
| 2026-05-04 19:46 | 32.03628 | -94.19406 | 32989 ft | 492 kts | 27° |
| 2026-05-04 19:46 | 32.08845 | -94.14239 | 32961 ft | 486 kts | 27° |
| 2026-05-04 19:47 | 32.14000 | -94.09118 | 32954 ft | 485 kts | 27° |
| 2026-05-04 19:47 | 32.19188 | -94.03974 | 32953 ft | 488 kts | 27° |
| 2026-05-04 19:48 | 32.24387 | -93.98809 | 32952 ft | 487 kts | 27° |
| 2026-05-04 19:48 | 32.29557 | -93.93658 | 32986 ft | 486 kts | 27° |
| 2026-05-04 19:49 | 32.34706 | -93.88521 | 32967 ft | 487 kts | 27° |
| 2026-05-04 19:49 | 32.39898 | -93.83338 | 32963 ft | 488 kts | 27° |
| 2026-05-04 19:50 | 32.45081 | -93.78153 | 32972 ft | 487 kts | 27° |
| 2026-05-04 19:50 | 32.50230 | -93.72986 | 32972 ft | 484 kts | 27° |
| 2026-05-04 19:51 | 32.55344 | -93.67855 | 32966 ft | 486 kts | 27° |
| 2026-05-04 19:51 | 32.60512 | -93.62666 | 32973 ft | 486 kts | 27° |
| 2026-05-04 19:52 | 32.65651 | -93.57487 | 32958 ft | 483 kts | 27° |
| 2026-05-04 19:52 | 32.70789 | -93.52307 | 32964 ft | 486 kts | 27° |
| 2026-05-04 19:53 | 32.75950 | -93.47102 | 32964 ft | 486 kts | 27° |
| 2026-05-04 19:53 | 32.81089 | -93.41902 | 32961 ft | 484 kts | 27° |
| 2026-05-04 19:54 | 32.86222 | -93.36701 | 32980 ft | 486 kts | 27° |
| 2026-05-04 19:54 | 32.91367 | -93.31485 | 32955 ft | 486 kts | 27° |
| 2026-05-04 19:55 | 32.96507 | -93.26259 | 32947 ft | 485 kts | 27° |
| 2026-05-04 19:55 | 33.01597 | -93.21074 | 32940 ft | 485 kts | 27° |
| 2026-05-04 19:56 | 33.06743 | -93.15830 | 32935 ft | 487 kts | 27° |
| 2026-05-04 19:56 | 33.11877 | -93.10584 | 32934 ft | 485 kts | 27° |
| 2026-05-04 19:57 | 33.16999 | -93.05340 | 32941 ft | 485 kts | 27° |
| 2026-05-04 19:57 | 33.22138 | -93.00082 | 32943 ft | 487 kts | 28° |
| 2026-05-04 19:58 | 33.27276 | -92.94810 | 32935 ft | 486 kts | 28° |
| 2026-05-04 19:58 | 33.32402 | -92.89536 | 32938 ft | 486 kts | 28° |
| 2026-05-04 19:59 | 33.37530 | -92.84255 | 32932 ft | 487 kts | 28° |
| 2026-05-04 19:59 | 33.42636 | -92.78991 | 32929 ft | 487 kts | 28° |
| 2026-05-04 20:00 | 33.47790 | -92.73661 | 32927 ft | 486 kts | 28° |
| 2026-05-04 20:00 | 33.52871 | -92.68400 | 32927 ft | 486 kts | 28° |
| 2026-05-04 20:01 | 33.57999 | -92.63087 | 32928 ft | 487 kts | 28° |
| 2026-05-04 20:01 | 33.63122 | -92.57768 | 32919 ft | 486 kts | 28° |
| 2026-05-04 20:02 | 33.68233 | -92.52454 | 32943 ft | 487 kts | 28° |
| 2026-05-04 20:02 | 33.73375 | -92.47108 | 32930 ft | 490 kts | 28° |
| 2026-05-04 20:03 | 33.78518 | -92.41739 | 32922 ft | 488 kts | 28° |
| 2026-05-04 20:03 | 33.83637 | -92.36381 | 32922 ft | 488 kts | 28° |
| 2026-05-04 20:04 | 33.87899 | -92.31920 | 32924 ft | 490 kts | 28° |
| 2026-05-04 20:04 | 33.93035 | -92.26536 | 32923 ft | 489 kts | 28° |
| 2026-05-04 20:05 | 33.98146 | -92.21166 | 32937 ft | 487 kts | 29° |
| 2026-05-04 20:05 | 34.03256 | -92.15791 | 32911 ft | 488 kts | 29° |
| 2026-05-04 20:06 | 34.08379 | -92.10394 | 32911 ft | 489 kts | 29° |
| 2026-05-04 20:06 | 34.13499 | -92.04986 | 32911 ft | 488 kts | 29° |
| 2026-05-04 20:07 | 34.18607 | -91.99582 | 32919 ft | 488 kts | 29° |
| 2026-05-04 20:07 | 34.23688 | -91.94199 | 32925 ft | 489 kts | 29° |
| 2026-05-04 20:08 | 34.28777 | -91.88789 | 32925 ft | 486 kts | 29° |
| 2026-05-04 20:08 | 34.33825 | -91.83413 | 32907 ft | 482 kts | 29° |
| 2026-05-04 20:09 | 34.38885 | -91.78026 | 32911 ft | 485 kts | 29° |
| 2026-05-04 20:09 | 34.43955 | -91.72627 | 32904 ft | 485 kts | 29° |
| 2026-05-04 20:10 | 34.49012 | -91.67225 | 32922 ft | 483 kts | 29° |
| 2026-05-04 20:10 | 34.54033 | -91.61850 | 32909 ft | 481 kts | 29° |
| 2026-05-04 20:11 | 34.59031 | -91.56497 | 32909 ft | 484 kts | 29° |
| 2026-05-04 20:11 | 34.64088 | -91.51078 | 32928 ft | 483 kts | 30° |
| 2026-05-04 20:12 | 34.69108 | -91.45692 | 32908 ft | 480 kts | 30° |
| 2026-05-04 20:12 | 34.74116 | -91.40302 | 32933 ft | 482 kts | 30° |
| 2026-05-04 20:13 | 34.79145 | -91.34892 | 32909 ft | 482 kts | 31° |
| 2026-05-04 20:13 | 34.84146 | -91.29481 | 32898 ft | 480 kts | 31° |
| 2026-05-04 20:14 | 34.89149 | -91.24059 | 32899 ft | 482 kts | 31° |
| 2026-05-04 20:14 | 34.94166 | -91.18614 | 32893 ft | 482 kts | 31° |
| 2026-05-04 20:15 | 34.99137 | -91.13209 | 32946 ft | 481 kts | 31° |
| 2026-05-04 20:15 | 35.04140 | -91.07784 | 32900 ft | 479 kts | 32° |
| 2026-05-04 20:16 | 35.09112 | -91.02363 | 32894 ft | 480 kts | 32° |
| 2026-05-04 20:16 | 35.14100 | -90.96913 | 32892 ft | 482 kts | 32° |
| 2026-05-04 20:17 | 35.19086 | -90.91454 | 32884 ft | 480 kts | 32° |
| 2026-05-04 20:17 | 35.24052 | -90.86003 | 32886 ft | 480 kts | 32° |
| 2026-05-04 20:18 | 35.29044 | -90.80547 | 32890 ft | 482 kts | 33° |
| 2026-05-04 20:18 | 35.34018 | -90.75087 | 32888 ft | 482 kts | 33° |
| 2026-05-04 20:19 | 35.39008 | -90.69609 | 32870 ft | 481 kts | 33° |
| 2026-05-04 20:19 | 35.43988 | -90.64109 | 32870 ft | 483 kts | 34° |
| 2026-05-04 20:20 | 35.48983 | -90.58579 | 32863 ft | 483 kts | 34° |
| 2026-05-04 20:20 | 35.53972 | -90.53068 | 32871 ft | 483 kts | 34° |
| 2026-05-04 20:21 | 35.58971 | -90.47526 | 32865 ft | 485 kts | 35° |
| 2026-05-04 20:21 | 35.66462 | -90.39181 | 32861 ft | 483 kts | 35° |
| 2026-05-04 20:22 | 35.71449 | -90.33641 | 32865 ft | 484 kts | 36° |
| 2026-05-04 20:22 | 35.76424 | -90.28096 | 32879 ft | 486 kts | 36° |
| 2026-05-04 20:23 | 35.81423 | -90.22511 | 32856 ft | 484 kts | 36° |
| 2026-05-04 20:23 | 35.86406 | -90.16917 | 32850 ft | 485 kts | 36° |
| 2026-05-04 20:24 | 35.91395 | -90.11310 | 32845 ft | 486 kts | 36° |
| 2026-05-04 20:24 | 35.96387 | -90.05692 | 32839 ft | 484 kts | 36° |
| 2026-05-04 20:25 | 36.01372 | -90.00093 | 32838 ft | 484 kts | 36° |
| 2026-05-04 20:25 | 36.06372 | -89.94494 | 32853 ft | 486 kts | 37° |
| 2026-05-04 20:26 | 36.11639 | -89.89374 | 32848 ft | 479 kts | 30° |
| 2026-05-04 20:26 | 36.17071 | -89.84611 | 32846 ft | 478 kts | 29° |
| 2026-05-04 20:27 | 36.22530 | -89.79876 | 32843 ft | 480 kts | 29° |
| 2026-05-04 20:27 | 36.27958 | -89.75145 | 32843 ft | 479 kts | 30° |
| 2026-05-04 20:28 | 36.33399 | -89.70366 | 32838 ft | 479 kts | 30° |
| 2026-05-04 20:28 | 36.38844 | -89.65554 | 32835 ft | 480 kts | 30° |
| 2026-05-04 20:29 | 36.44283 | -89.60721 | 32832 ft | 480 kts | 30° |
| 2026-05-04 20:29 | 36.49703 | -89.55881 | 32827 ft | 479 kts | 30° |
| 2026-05-04 20:30 | 36.55076 | -89.51065 | 32833 ft | 480 kts | 30° |
| 2026-05-04 20:30 | 36.60502 | -89.46189 | 32822 ft | 481 kts | 30° |
| 2026-05-04 20:31 | 36.65925 | -89.41301 | 32810 ft | 480 kts | 30° |
| 2026-05-04 20:31 | 36.71323 | -89.36423 | 32813 ft | 480 kts | 30° |
| 2026-05-04 20:32 | 36.76739 | -89.31518 | 32820 ft | 481 kts | 30° |
| 2026-05-04 20:32 | 36.82143 | -89.26610 | 32817 ft | 480 kts | 30° |
| 2026-05-04 20:33 | 36.87538 | -89.21703 | 32819 ft | 480 kts | 30° |
| 2026-05-04 20:33 | 36.92957 | -89.16771 | 32817 ft | 483 kts | 31° |
| 2026-05-04 20:34 | 36.98381 | -89.11818 | 32813 ft | 481 kts | 31° |
| 2026-05-04 20:34 | 37.03741 | -89.06911 | 32820 ft | 481 kts | 31° |
| 2026-05-04 20:35 | 37.09150 | -89.01954 | 32814 ft | 483 kts | 31° |
| 2026-05-04 20:35 | 37.14562 | -88.96986 | 32810 ft | 482 kts | 31° |
| 2026-05-04 20:36 | 37.19954 | -88.92023 | 32811 ft | 481 kts | 31° |
| 2026-05-04 20:36 | 37.25358 | -88.87040 | 32831 ft | 483 kts | 30° |
| 2026-05-04 20:37 | 37.30777 | -88.82035 | 32800 ft | 483 kts | 31° |
| 2026-05-04 20:37 | 37.36183 | -88.77035 | 32802 ft | 482 kts | 31° |
| 2026-05-04 20:38 | 37.41583 | -88.72033 | 32794 ft | 482 kts | 31° |
| 2026-05-04 20:38 | 37.46990 | -88.67015 | 32824 ft | 483 kts | 31° |
| 2026-05-04 20:39 | 37.52371 | -88.62005 | 32803 ft | 485 kts | 30° |
| 2026-05-04 20:39 | 37.57802 | -88.56946 | 32799 ft | 486 kts | 30° |
| 2026-05-04 20:40 | 37.63225 | -88.51884 | 32795 ft | 484 kts | 30° |
| 2026-05-04 20:40 | 37.68643 | -88.46818 | 32799 ft | 485 kts | 31° |
| 2026-05-04 20:41 | 37.74063 | -88.41740 | 32804 ft | 485 kts | 31° |
| 2026-05-04 20:41 | 37.79487 | -88.36648 | 32805 ft | 486 kts | 31° |
| 2026-05-04 20:42 | 37.84915 | -88.31544 | 32801 ft | 486 kts | 31° |
| 2026-05-04 20:42 | 37.90338 | -88.26434 | 32798 ft | 485 kts | 31° |
| 2026-05-04 20:43 | 37.95716 | -88.21358 | 32803 ft | 486 kts | 31° |
| 2026-05-04 20:43 | 38.01152 | -88.16222 | 32783 ft | 488 kts | 31° |
| 2026-05-04 20:44 | 38.06587 | -88.11073 | 32781 ft | 487 kts | 31° |
| 2026-05-04 20:44 | 38.12001 | -88.05933 | 32784 ft | 486 kts | 31° |
| 2026-05-04 20:45 | 38.17416 | -88.00783 | 32792 ft | 486 kts | 31° |
| 2026-05-04 20:45 | 38.22891 | -87.95755 | 32782 ft | 485 kts | 30° |
| 2026-05-04 20:46 | 38.28311 | -87.90627 | 32436 ft | 486 kts | 31° |
| 2026-05-04 20:46 | 38.31011 | -87.88022 | 31904 ft | 488 kts | 31° |
| 2026-05-04 20:46 | 38.33723 | -87.85395 | 31199 ft | 491 kts | 31° |
| 2026-05-04 20:47 | 38.36415 | -87.82782 | 30361 ft | 494 kts | 31° |
| 2026-05-04 20:47 | 38.39118 | -87.80150 | 29935 ft | 484 kts | 31° |
| 2026-05-04 20:47 | 38.41769 | -87.77566 | 29364 ft | 477 kts | 31° |
| 2026-05-04 20:47 | 38.44406 | -87.75006 | 28442 ft | 477 kts | 31° |
| 2026-05-04 20:48 | 38.47062 | -87.72440 | 27528 ft | 479 kts | 31° |
| 2026-05-04 20:48 | 38.49721 | -87.69876 | 26628 ft | 479 kts | 31° |
| 2026-05-04 20:48 | 38.52383 | -87.67309 | 25789 ft | 480 kts | 32° |
| 2026-05-04 20:48 | 38.55053 | -87.64733 | 24963 ft | 480 kts | 32° |
| 2026-05-04 20:49 | 38.57710 | -87.62169 | 24332 ft | 476 kts | 32° |
| 2026-05-04 20:49 | 38.60335 | -87.59629 | 23751 ft | 471 kts | 32° |
| 2026-05-04 20:49 | 38.62938 | -87.57107 | 23161 ft | 466 kts | 32° |
| 2026-05-04 20:49 | 38.65516 | -87.54609 | 22429 ft | 464 kts | 32° |
| 2026-05-04 20:50 | 38.68072 | -87.52127 | 21783 ft | 460 kts | 32° |
| 2026-05-04 20:50 | 38.70611 | -87.49661 | 21139 ft | 456 kts | 32° |
| 2026-05-04 20:50 | 38.73123 | -87.47218 | 20516 ft | 451 kts | 33° |
| 2026-05-04 20:50 | 38.75616 | -87.44793 | 19907 ft | 448 kts | 33° |
| 2026-05-04 20:51 | 38.78084 | -87.42389 | 19299 ft | 444 kts | 33° |
| 2026-05-04 20:51 | 38.80533 | -87.40004 | 18725 ft | 440 kts | 33° |
| 2026-05-04 20:51 | 38.82930 | -87.37667 | 18131 ft | 437 kts | 33° |
| 2026-05-04 20:51 | 38.85344 | -87.35313 | 17462 ft | 434 kts | 33° |
| 2026-05-04 20:52 | 38.87739 | -87.32974 | 16776 ft | 432 kts | 33° |
| 2026-05-04 20:52 | 38.90128 | -87.30642 | 16042 ft | 431 kts | 33° |
| 2026-05-04 20:52 | 38.92512 | -87.28314 | 15390 ft | 429 kts | 33° |
| 2026-05-04 20:52 | 38.94879 | -87.26001 | 14739 ft | 427 kts | 33° |
| 2026-05-04 20:53 | 38.97238 | -87.23694 | 14100 ft | 425 kts | 33° |
| 2026-05-04 20:53 | 38.99586 | -87.21396 | 13470 ft | 423 kts | 33° |
| 2026-05-04 20:53 | 39.01921 | -87.19108 | 12861 ft | 419 kts | 34° |
| 2026-05-04 20:53 | 39.04153 | -87.16911 | 12830 ft | 399 kts | 34° |
| 2026-05-04 20:54 | 39.05615 | -87.15467 | 12805 ft | 386 kts | 33° |
| 2026-05-04 20:54 | 39.07695 | -87.13406 | 12739 ft | 368 kts | 33° |
| 2026-05-04 20:54 | 39.09682 | -87.11435 | 12622 ft | 352 kts | 33° |
| 2026-05-04 20:54 | 39.11587 | -87.09548 | 12422 ft | 339 kts | 33° |
| 2026-05-04 20:55 | 39.13444 | -87.07714 | 11969 ft | 335 kts | 33° |
| 2026-05-04 20:55 | 39.15293 | -87.05893 | 11471 ft | 333 kts | 33° |
| 2026-05-04 20:55 | 39.17132 | -87.04084 | 10974 ft | 331 kts | 33° |
| 2026-05-04 20:55 | 39.18955 | -87.02294 | 10502 ft | 329 kts | 33° |
| 2026-05-04 20:56 | 39.20773 | -87.00508 | 10020 ft | 327 kts | 33° |
| 2026-05-04 20:56 | 39.22577 | -86.98730 | 9562 ft | 325 kts | 33° |
| 2026-05-04 20:56 | 39.24368 | -86.96966 | 9063 ft | 323 kts | 34° |
| 2026-05-04 20:56 | 39.26151 | -86.95209 | 8587 ft | 320 kts | 34° |
| 2026-05-04 20:57 | 39.27919 | -86.93468 | 8070 ft | 320 kts | 34° |
| 2026-05-04 20:57 | 39.29683 | -86.91732 | 7595 ft | 317 kts | 35° |
| 2026-05-04 20:57 | 39.31429 | -86.90010 | 7183 ft | 315 kts | 35° |
| 2026-05-04 20:57 | 39.33168 | -86.88287 | 6673 ft | 315 kts | 35° |
| 2026-05-04 20:58 | 39.34899 | -86.86569 | 6247 ft | 313 kts | 36° |
| 2026-05-04 20:58 | 39.36621 | -86.84864 | 5792 ft | 311 kts | 36° |
| 2026-05-04 20:58 | 39.38332 | -86.83175 | 5355 ft | 308 kts | 37° |
| 2026-05-04 20:58 | 39.40004 | -86.81519 | 4921 ft | 306 kts | 37° |
| 2026-05-04 20:59 | 39.41681 | -86.79854 | 4493 ft | 302 kts | 38° |
| 2026-05-04 20:59 | 39.43364 | -86.78185 | 4084 ft | 312 kts | 38° |
| 2026-05-04 20:59 | 39.45094 | -86.76463 | 3891 ft | 312 kts | 38° |
| 2026-05-04 20:59 | 39.46776 | -86.74773 | 3806 ft | 300 kts | 38° |
| 2026-05-04 21:00 | 39.48411 | -86.73135 | 3764 ft | 296 kts | 38° |
| 2026-05-04 21:00 | 39.50050 | -86.71493 | 3752 ft | 300 kts | 38° |
| 2026-05-04 21:00 | 39.51701 | -86.69837 | 3742 ft | 300 kts | 39° |
| 2026-05-04 21:00 | 39.53344 | -86.68191 | 3742 ft | 297 kts | 38° |
| 2026-05-04 21:01 | 39.54978 | -86.66537 | 3745 ft | 299 kts | 38° |
| 2026-05-04 21:01 | 39.56612 | -86.64891 | 3736 ft | 295 kts | 38° |
| 2026-05-04 21:01 | 39.58236 | -86.63263 | 3741 ft | 298 kts | 38° |
| 2026-05-04 21:01 | 39.59875 | -86.61617 | 3740 ft | 298 kts | 38° |
| 2026-05-04 21:02 | 39.61508 | -86.59977 | 3739 ft | 297 kts | 38° |
| 2026-05-04 21:02 | 39.63144 | -86.58337 | 3731 ft | 297 kts | 38° |
| 2026-05-04 21:02 | 39.64780 | -86.56699 | 3734 ft | 297 kts | 38° |
| 2026-05-04 21:02 | 39.66420 | -86.55026 | 3747 ft | 304 kts | 37° |
| 2026-05-04 21:03 | 39.68064 | -86.53352 | 3725 ft | 303 kts | 37° |
| 2026-05-04 21:03 | 39.69718 | -86.51688 | 3738 ft | 300 kts | 37° |
| 2026-05-04 21:03 | 39.71368 | -86.50029 | 3753 ft | 301 kts | 37° |
| 2026-05-04 21:03 | 39.73029 | -86.48356 | 3764 ft | 302 kts | 36° |
| 2026-05-04 21:04 | 39.74691 | -86.46689 | 3724 ft | 304 kts | 36° |
| 2026-05-04 21:04 | 39.76382 | -86.44994 | 3545 ft | 306 kts | 37° |
| 2026-05-04 21:04 | 39.78058 | -86.43318 | 3351 ft | 301 kts | 37° |
| 2026-05-04 21:04 | 39.79700 | -86.41661 | 3167 ft | 297 kts | 37° |
| 2026-05-04 21:05 | 39.81324 | -86.40027 | 2960 ft | 294 kts | 38° |
| 2026-05-04 21:05 | 39.82930 | -86.38404 | 2848 ft | 289 kts | 38° |
| 2026-05-04 21:05 | 39.84516 | -86.36788 | 2796 ft | 291 kts | 38° |
| 2026-05-04 21:05 | 39.86001 | -86.35054 | 2757 ft | 280 kts | 58° |
| 2026-05-04 21:06 | 39.86705 | -86.32769 | 2737 ft | 273 kts | 87° |
| 2026-05-04 21:06 | 39.86823 | -86.30287 | 2732 ft | 274 kts | 97° |
| 2026-05-04 21:06 | 39.86680 | -86.27824 | 2738 ft | 271 kts | 103° |
| 2026-05-04 21:06 | 39.86373 | -86.25431 | 2736 ft | 266 kts | 108° |
| 2026-05-04 21:07 | 39.85966 | -86.23104 | 2730 ft | 261 kts | 113° |
| 2026-05-04 21:07 | 39.85283 | -86.20953 | 2722 ft | 254 kts | 129° |
| 2026-05-04 21:07 | 39.84146 | -86.19263 | 2718 ft | 244 kts | 151° |
| 2026-05-04 21:07 | 39.82688 | -86.18296 | 2731 ft | 235 kts | 170° |
| 2026-05-04 21:08 | 39.81092 | -86.18125 | 2716 ft | 227 kts | 199° |
| 2026-05-04 21:08 | 39.79678 | -86.18997 | 2717 ft | 225 kts | 217° |
| 2026-05-04 21:08 | 39.78424 | -86.20229 | 2597 ft | 231 kts | 218° |
| 2026-05-04 21:08 | 39.77168 | -86.21511 | 2137 ft | 207 kts | 219° |
| 2026-05-04 21:09 | 39.76234 | -86.22583 | 1903 ft | 163 kts | 221° |
| 2026-05-04 21:09 | 39.75490 | -86.23498 | 1743 ft | 135 kts | 222° |
| 2026-05-04 21:09 | 39.74799 | -86.24347 | 1616 ft | 144 kts | 223° |
| 2026-05-04 21:09 | 39.74044 | -86.25300 | 1387 ft | 153 kts | 224° |
| 2026-05-04 21:10 | 39.73349 | -86.26210 | 1191 ft | 134 kts | 222° |
| 2026-05-04 21:10 | 39.72665 | -86.27092 | 1004 ft | 144 kts | 222° |
| 2026-05-04 21:10 | 39.71971 | -86.27971 | 828 ft | 133 kts | 220° |
| 2026-05-04 21:10 | 39.71323 | -86.28775 | 792 ft | 115 kts | 224° |
| 2026-05-04 21:11 | 39.70915 | -86.29305 | 787 ft | 51 kts | 224° |
| 2026-05-04 21:11 | 39.70796 | -86.29386 | 790 ft | 11 kts | 129° |
| 2026-05-04 21:11 | 39.70763 | -86.29309 | 791 ft | 11 kts | 80° |
| 2026-05-04 21:11 | 39.70845 | -86.29205 | 790 ft | 22 kts | 44° |
| 2026-05-04 21:12 | 39.70964 | -86.29043 | 791 ft | 27 kts | 44° |
| 2026-05-04 21:12 | 39.71089 | -86.28885 | 794 ft | 24 kts | 44° |
| 2026-05-04 21:12 | 39.71174 | -86.28779 | 793 ft | 11 kts | 44° |
| 2026-05-04 21:12 | 39.71191 | -86.28701 | 793 ft | 11 kts | 117° |
| 2026-05-04 21:13 | 39.71159 | -86.28653 | 793 ft | 0 kts | 135° |
| 2026-05-04 21:13 | 39.71158 | -86.28652 | 793 ft | 1 kts | 135° |
| 2026-05-04 21:13 | 39.71143 | -86.28633 | 792 ft | 5 kts | 135° |
| 2026-05-04 21:13 | 39.71107 | -86.28607 | 792 ft | 4 kts | 179° |
| 2026-05-04 21:14 | 39.71091 | -86.28621 | 792 ft | 5 kts | 224° |
| 2026-05-04 21:14 | 39.71051 | -86.28673 | 793 ft | 10 kts | 229° |
| 2026-05-04 21:14 | 39.71061 | -86.28750 | 793 ft | 11 kts | 320° |
| 2026-05-04 21:14 | 39.71075 | -86.28766 | 793 ft | 0 kts | 317° |